createdAt,value
2023-05-22T00:01:59.267Z,100.00
2023-05-22T00:04:29.939Z,100.00
2023-05-22T00:06:57.969Z,100.00
2023-05-22T00:09:27.655Z,100.00
2023-05-22T00:11:55.636Z,100.00
2023-05-22T00:14:23.567Z,100.00
2023-05-22T00:16:51.498Z,100.00
2023-05-22T00:19:23.078Z,100.00
2023-05-22T00:21:51.410Z,100.00
2023-05-22T00:24:19.759Z,100.00
2023-05-22T00:26:49.045Z,100.00
2023-05-22T00:29:16.941Z,100.00
2023-05-22T00:31:44.842Z,100.00
2023-05-22T00:34:12.823Z,100.00
2023-05-22T00:36:40.918Z,100.00
2023-05-22T00:39:09.134Z,100.00
2023-05-22T00:41:38.513Z,100.00
2023-05-22T00:44:08.020Z,100.00
2023-05-22T00:46:36.550Z,100.00
2023-05-22T00:49:04.626Z,100.00
2023-05-22T00:51:32.976Z,100.00
2023-05-22T00:54:01.383Z,100.00
2023-05-22T00:56:30.098Z,100.00
2023-05-22T00:58:58.209Z,100.00
2023-05-22T01:01:33.428Z,100.00
2023-05-22T01:04:05.017Z,100.00
2023-05-22T01:06:34.266Z,100.00
2023-05-22T01:09:02.442Z,100.00
2023-05-22T01:11:35.690Z,100.00
2023-05-22T01:14:11.831Z,100.00
2023-05-22T01:16:54.757Z,100.00
2023-05-22T01:19:50.583Z,100.00
2023-05-22T01:22:32.340Z,100.00
2023-05-22T01:25:32.264Z,100.00
2023-05-22T01:28:17.336Z,100.00
2023-05-22T01:30:50.154Z,100.00
2023-05-22T01:33:19.439Z,100.00
2023-05-22T01:35:53.946Z,100.00
2023-05-22T01:38:22.861Z,100.00
2023-05-22T01:40:51.400Z,100.00
2023-05-22T01:43:20.117Z,100.00
2023-05-22T01:45:49.585Z,100.00
2023-05-22T01:48:17.614Z,100.00
2023-05-22T01:50:52.517Z,100.00
2023-05-22T01:53:28.144Z,100.00
2023-05-22T01:56:02.554Z,100.00
2023-05-22T01:58:35.364Z,100.00
2023-05-22T02:01:05.404Z,100.00
2023-05-22T02:03:36.229Z,100.00
2023-05-22T02:06:07.865Z,100.00
2023-05-22T02:08:38.653Z,100.00
2023-05-22T02:11:08.540Z,100.00
2023-05-22T02:13:36.817Z,100.00
2023-05-22T02:16:07.433Z,100.00
2023-05-22T02:18:35.540Z,100.00
2023-05-22T02:21:05.724Z,100.00
2023-05-22T02:23:33.676Z,100.00
2023-05-22T02:26:01.902Z,100.00
2023-05-22T02:28:29.835Z,100.00
2023-05-22T02:30:57.747Z,100.00
2023-05-22T02:33:27.094Z,100.00
2023-05-22T02:35:55.293Z,100.00
2023-05-22T02:38:24.982Z,100.00
2023-05-22T02:40:53.173Z,100.00
2023-05-22T02:43:22.140Z,100.00
2023-05-22T02:45:50.122Z,100.00
2023-05-22T02:48:18.561Z,100.00
2023-05-22T02:50:48.930Z,100.00
2023-05-22T02:53:17.217Z,100.00
2023-05-22T02:55:45.919Z,100.00
2023-05-22T02:58:14.530Z,100.00
2023-05-22T03:00:43.267Z,100.00
2023-05-22T03:03:12.720Z,100.00
2023-05-22T03:05:43.362Z,100.00
2023-05-22T03:08:12.901Z,100.00
2023-05-22T03:10:42.394Z,100.00
2023-05-22T03:13:10.529Z,100.00
2023-05-22T03:15:38.837Z,100.00
2023-05-22T03:18:13.737Z,100.00
2023-05-22T03:20:42.402Z,100.00
2023-05-22T03:23:12.544Z,100.00
2023-05-22T03:25:40.823Z,100.00
2023-05-22T03:28:08.877Z,100.00
2023-05-22T03:30:41.004Z,100.00
2023-05-22T03:33:18.342Z,100.00
2023-05-22T03:35:46.298Z,100.00
2023-05-22T03:38:15.798Z,100.00
2023-05-22T03:40:43.825Z,100.00
2023-05-22T03:43:11.817Z,100.00
2023-05-22T03:45:40.448Z,100.00
2023-05-22T03:48:10.633Z,100.00
2023-05-22T03:50:39.001Z,100.00
2023-05-22T03:53:07.392Z,100.00
2023-05-22T03:55:36.848Z,100.00
2023-05-22T03:58:04.913Z,100.00
2023-05-22T04:00:33.264Z,100.00
2023-05-22T04:03:01.463Z,100.00
2023-05-22T04:05:30.434Z,100.00
2023-05-22T04:07:58.621Z,100.00
2023-05-22T04:10:26.603Z,100.00
2023-05-22T04:12:55.865Z,100.00
2023-05-22T04:15:24.066Z,100.00
2023-05-22T04:17:52.751Z,100.00
2023-05-22T04:20:22.249Z,100.00
2023-05-22T04:22:51.804Z,100.00
2023-05-22T04:25:19.758Z,100.00
2023-05-22T04:27:48.300Z,100.00
2023-05-22T04:30:18.487Z,100.00
2023-05-22T04:32:46.560Z,100.00
2023-05-22T04:35:18.467Z,100.00
2023-05-22T04:37:46.605Z,100.00
2023-05-22T04:40:15.393Z,100.00
2023-05-22T04:42:43.999Z,100.00
2023-05-22T04:45:13.961Z,100.00
2023-05-22T04:47:43.687Z,100.00
2023-05-22T04:50:14.322Z,100.00
2023-05-22T04:52:42.467Z,100.00
2023-05-22T04:55:14.457Z,100.00
2023-05-22T04:57:44.567Z,100.00
2023-05-22T05:00:14.271Z,100.00
2023-05-22T05:02:44.473Z,100.00
2023-05-22T05:05:13.114Z,100.00
2023-05-22T05:07:42.070Z,100.00
2023-05-22T05:10:10.959Z,100.00
2023-05-22T05:12:38.881Z,100.00
2023-05-22T05:15:08.231Z,100.00
2023-05-22T05:17:36.161Z,100.00
2023-05-22T05:20:07.472Z,100.00
2023-05-22T05:22:35.989Z,100.00
2023-05-22T05:25:08.091Z,100.00
2023-05-22T05:27:37.512Z,100.00
2023-05-22T05:30:06.636Z,100.00
2023-05-22T05:32:52.263Z,100.00
2023-05-22T05:35:42.730Z,100.00
2023-05-22T05:38:12.455Z,100.00
2023-05-22T05:40:42.405Z,100.00
2023-05-22T05:43:11.531Z,100.00
2023-05-22T05:45:40.123Z,100.00
2023-05-22T05:48:08.483Z,100.00
2023-05-22T05:50:41.414Z,100.00
2023-05-22T05:53:10.605Z,100.00
2023-05-22T05:55:42.864Z,100.00
2023-05-22T05:58:10.905Z,100.00
2023-05-22T06:00:44.276Z,100.00
2023-05-22T06:03:12.466Z,100.00
2023-05-22T06:05:52.739Z,100.00
2023-05-22T06:08:43.347Z,100.00
2023-05-22T06:11:11.476Z,100.00
2023-05-22T06:13:49.849Z,100.00
2023-05-22T06:16:18.405Z,100.00
2023-05-22T06:18:47.328Z,100.00
2023-05-22T06:21:17.827Z,100.00
2023-05-22T06:23:46.215Z,100.00
2023-05-22T06:26:14.931Z,100.00
2023-05-22T06:28:44.955Z,100.00
2023-05-22T06:31:12.961Z,100.00
2023-05-22T06:33:44.934Z,100.00
2023-05-22T06:36:12.945Z,100.00
2023-05-22T06:38:42.535Z,100.00
2023-05-22T06:41:27.224Z,100.00
2023-05-22T06:43:55.224Z,100.00
2023-05-22T06:46:29.548Z,100.00
2023-05-22T06:49:04.183Z,100.00
2023-05-22T06:51:37.882Z,100.00
2023-05-22T06:54:12.383Z,100.00
2023-05-22T06:56:42.138Z,100.00
2023-05-22T06:59:14.411Z,100.00
2023-05-22T07:02:04.993Z,100.00
2023-05-22T07:05:11.435Z,100.00
2023-05-22T07:07:53.394Z,100.00
2023-05-22T07:10:23.105Z,100.00
2023-05-22T07:12:51.407Z,100.00
2023-05-22T07:15:19.429Z,100.00
2023-05-22T07:17:52.912Z,100.00
2023-05-22T07:20:20.953Z,100.00
2023-05-22T07:23:00.871Z,100.00
2023-05-22T07:25:30.314Z,100.00
2023-05-22T07:27:58.872Z,100.00
2023-05-22T07:30:27.345Z,98.78
2023-05-22T07:32:57.130Z,98.50
2023-05-22T07:35:26.925Z,98.49
2023-05-22T07:37:55.094Z,97.23
2023-05-22T07:40:24.547Z,95.22
2023-05-22T07:42:55.739Z,97.27
2023-05-22T07:45:23.960Z,97.37
2023-05-22T07:47:54.202Z,96.90
2023-05-22T07:50:26.689Z,94.58
2023-05-22T07:52:54.868Z,92.56
2023-05-22T07:55:23.601Z,91.86
2023-05-22T07:57:52.898Z,90.91
2023-05-22T08:00:31.196Z,90.36
2023-05-22T08:02:59.243Z,89.45
2023-05-22T08:05:27.326Z,89.95
2023-05-22T08:07:55.274Z,88.51
2023-05-22T08:10:23.879Z,89.04
2023-05-22T08:12:51.956Z,89.11
2023-05-22T08:15:20.017Z,85.32
2023-05-22T08:17:49.591Z,83.43
2023-05-22T08:20:17.799Z,79.94
2023-05-22T08:22:46.531Z,80.95
2023-05-22T08:25:14.477Z,80.16
2023-05-22T08:27:42.411Z,82.29
2023-05-22T08:30:10.813Z,82.02
2023-05-22T08:32:38.937Z,78.98
2023-05-22T08:35:09.059Z,80.25
2023-05-22T08:37:37.131Z,78.74
2023-05-22T08:40:06.358Z,79.89
2023-05-22T08:42:34.289Z,80.24
2023-05-22T08:45:02.237Z,80.68
2023-05-22T08:47:33.979Z,79.31
2023-05-22T08:50:03.186Z,76.82
2023-05-22T08:52:37.955Z,77.96
2023-05-22T08:55:07.806Z,79.60
2023-05-22T08:57:37.168Z,78.60
2023-05-22T09:00:06.033Z,78.89
2023-05-22T09:02:34.293Z,80.01
2023-05-22T09:05:05.469Z,77.85
2023-05-22T09:07:35.139Z,79.71
2023-05-22T09:10:05.294Z,78.53
2023-05-22T09:12:33.557Z,77.50
2023-05-22T09:15:10.378Z,75.64
2023-05-22T09:17:40.955Z,73.26
2023-05-22T09:20:13.215Z,76.51
2023-05-22T09:22:42.511Z,77.34
2023-05-22T09:25:10.573Z,75.19
2023-05-22T09:27:38.600Z,75.24
2023-05-22T09:30:10.380Z,77.48
2023-05-22T09:32:39.509Z,79.46
2023-05-22T09:35:08.800Z,80.76
2023-05-22T09:37:37.833Z,79.46
2023-05-22T09:40:08.767Z,77.57
2023-05-22T09:42:36.807Z,78.01
2023-05-22T09:45:05.652Z,78.23
2023-05-22T09:47:34.261Z,77.49
2023-05-22T09:50:04.307Z,76.72
2023-05-22T09:52:34.964Z,77.30
2023-05-22T09:55:06.820Z,72.31
2023-05-22T09:57:42.835Z,73.19
2023-05-22T10:00:14.918Z,69.71
2023-05-22T10:02:46.257Z,70.10
2023-05-22T10:05:21.377Z,71.42
2023-05-22T10:07:51.797Z,72.58
2023-05-22T10:10:22.549Z,72.08
2023-05-22T10:12:57.573Z,72.52
2023-05-22T10:15:26.421Z,70.70
2023-05-22T10:17:54.533Z,71.90
2023-05-22T10:20:23.458Z,72.99
2023-05-22T10:22:51.600Z,73.61
2023-05-22T10:25:19.672Z,74.08
2023-05-22T10:27:47.748Z,75.68
2023-05-22T10:30:25.270Z,72.98
2023-05-22T10:33:21.030Z,71.73
2023-05-22T10:35:52.354Z,73.33
2023-05-22T10:38:45.220Z,73.79
2023-05-22T10:41:13.927Z,73.10
2023-05-22T10:43:43.343Z,72.25
2023-05-22T10:46:14.018Z,72.58
2023-05-22T10:48:46.376Z,72.68
2023-05-22T10:51:15.088Z,72.34
2023-05-22T10:53:45.351Z,72.38
2023-05-22T10:56:14.698Z,70.73
2023-05-22T10:58:45.850Z,71.48
2023-05-22T11:01:17.241Z,71.64
2023-05-22T11:03:59.859Z,73.47
2023-05-22T11:06:32.304Z,73.63
2023-05-22T11:09:00.378Z,73.72
2023-05-22T11:11:29.047Z,73.07
2023-05-22T11:14:04.206Z,73.87
2023-05-22T11:16:34.877Z,73.72
2023-05-22T11:19:21.973Z,72.27
2023-05-22T11:21:51.120Z,74.16
2023-05-22T11:24:19.509Z,72.31
2023-05-22T11:27:02.713Z,70.75
2023-05-22T11:29:31.732Z,70.49
2023-05-22T11:32:01.405Z,69.97
2023-05-22T11:34:29.369Z,72.03
2023-05-22T11:37:01.000Z,69.51
2023-05-22T11:39:29.095Z,69.51
2023-05-22T11:41:56.947Z,68.33
2023-05-22T11:44:24.931Z,69.26
2023-05-22T11:46:54.312Z,69.04
2023-05-22T11:49:25.366Z,67.88
2023-05-22T11:51:53.510Z,67.35
2023-05-22T11:54:22.269Z,65.24
2023-05-22T11:56:50.210Z,66.75
2023-05-22T11:59:18.152Z,65.64
2023-05-22T12:01:46.058Z,67.44
2023-05-22T12:04:14.352Z,66.46
2023-05-22T12:06:44.350Z,63.24
2023-05-22T12:09:12.493Z,64.25
2023-05-22T12:11:40.458Z,65.01
2023-05-22T12:14:12.671Z,62.34
2023-05-22T12:16:41.547Z,61.20
2023-05-22T12:19:11.878Z,60.95
2023-05-22T12:21:41.787Z,60.38
2023-05-22T12:24:11.424Z,58.48
2023-05-22T12:26:39.272Z,61.16
2023-05-22T12:29:07.282Z,59.71
2023-05-22T12:31:38.428Z,60.41
2023-05-22T12:34:08.620Z,58.32
2023-05-22T12:36:39.226Z,56.39
2023-05-22T12:39:09.255Z,56.19
2023-05-22T12:41:38.841Z,56.75
2023-05-22T12:44:07.309Z,56.40
2023-05-22T12:46:35.850Z,57.00
2023-05-22T12:49:04.194Z,57.21
2023-05-22T12:51:33.512Z,60.39
2023-05-22T12:54:02.577Z,58.47
2023-05-22T12:56:31.010Z,59.13
2023-05-22T12:59:00.422Z,59.98
2023-05-22T13:01:28.450Z,59.25
2023-05-22T13:03:56.512Z,58.78
2023-05-22T13:06:24.473Z,57.12
2023-05-22T13:08:52.376Z,57.00
2023-05-22T13:11:23.390Z,57.49
2023-05-22T13:13:51.327Z,57.52
2023-05-22T13:16:20.832Z,58.21
2023-05-22T13:18:48.861Z,56.60
2023-05-22T13:21:17.061Z,57.07
2023-05-22T13:23:45.081Z,57.57
2023-05-22T13:26:13.014Z,58.32
2023-05-22T13:28:41.011Z,56.66
2023-05-22T13:31:08.959Z,54.37
2023-05-22T13:33:38.467Z,55.92
2023-05-22T13:36:06.972Z,55.96
2023-05-22T13:38:34.933Z,55.69
2023-05-22T13:41:02.900Z,54.54
2023-05-22T13:43:31.027Z,56.34
2023-05-22T13:45:59.181Z,54.46
2023-05-22T13:48:27.154Z,57.35
2023-05-22T13:50:56.442Z,56.38
2023-05-22T13:53:24.389Z,55.87
2023-05-22T13:55:52.234Z,54.20
2023-05-22T13:58:20.115Z,56.08
2023-05-22T14:00:48.094Z,56.37
2023-05-22T14:03:17.705Z,55.54
2023-05-22T14:05:46.508Z,56.05
2023-05-22T14:08:15.768Z,59.20
2023-05-22T14:10:43.802Z,60.24
2023-05-22T14:13:11.771Z,59.99
2023-05-22T14:15:40.121Z,60.99
2023-05-22T14:18:08.293Z,62.46
2023-05-22T14:20:36.255Z,63.27
2023-05-22T14:23:05.608Z,63.87
2023-05-22T14:25:35.041Z,63.19
2023-05-22T14:28:03.000Z,63.55
2023-05-22T14:30:30.956Z,63.94
2023-05-22T14:32:58.887Z,63.49
2023-05-22T14:35:26.836Z,63.17
2023-05-22T14:37:54.680Z,64.12
2023-05-22T14:40:22.653Z,63.88
2023-05-22T14:42:53.997Z,62.90
2023-05-22T14:45:22.399Z,63.57
2023-05-22T14:47:50.576Z,63.87
2023-05-22T14:50:20.645Z,65.42
2023-05-22T14:52:49.426Z,64.73
2023-05-22T14:55:18.054Z,64.36
2023-05-22T14:57:46.136Z,64.06
2023-05-22T15:00:16.464Z,65.12
2023-05-22T15:02:44.429Z,64.83
2023-05-22T15:05:12.522Z,66.12
2023-05-22T15:07:44.622Z,65.09
2023-05-22T15:10:14.148Z,63.68
2023-05-22T15:12:42.136Z,64.63
2023-05-22T15:15:10.845Z,65.93
2023-05-22T15:17:42.684Z,66.31
2023-05-22T15:20:12.039Z,65.99
2023-05-22T15:22:40.155Z,65.38
2023-05-22T15:25:11.567Z,65.70
2023-05-22T15:27:40.632Z,65.65
2023-05-22T15:30:10.224Z,65.75
2023-05-22T15:32:38.940Z,67.18
2023-05-22T15:35:10.075Z,67.43
2023-05-22T15:37:38.378Z,67.42
2023-05-22T15:40:09.577Z,67.71
2023-05-22T15:42:37.530Z,65.98
2023-05-22T15:45:06.256Z,66.70
2023-05-22T15:47:34.140Z,66.67
2023-05-22T15:50:02.122Z,67.82
2023-05-22T15:52:31.459Z,68.65
2023-05-22T15:54:59.433Z,67.85
2023-05-22T15:57:28.277Z,66.42
2023-05-22T15:59:56.503Z,67.06
2023-05-22T16:02:25.392Z,67.65
2023-05-22T16:04:53.423Z,69.22
2023-05-22T16:07:21.281Z,69.39
2023-05-22T16:09:51.112Z,68.55
2023-05-22T16:12:19.500Z,68.42
2023-05-22T16:14:47.436Z,69.88
2023-05-22T16:17:15.385Z,69.59
2023-05-22T16:19:43.348Z,69.61
2023-05-22T16:22:11.532Z,70.16
2023-05-22T16:24:39.470Z,70.60
2023-05-22T16:27:09.028Z,70.13
2023-05-22T16:29:37.256Z,70.63
2023-05-22T16:32:05.802Z,71.73
2023-05-22T16:34:33.998Z,70.72
2023-05-22T16:37:02.169Z,70.48
2023-05-22T16:39:30.376Z,70.08
2023-05-22T16:41:58.355Z,70.82
2023-05-22T16:44:27.821Z,69.76
2023-05-22T16:46:55.823Z,69.83
2023-05-22T16:49:23.848Z,70.63
2023-05-22T16:51:51.735Z,70.93
2023-05-22T16:54:19.631Z,71.23
2023-05-22T16:56:47.619Z,70.84
2023-05-22T16:59:15.664Z,72.85
2023-05-22T17:01:45.060Z,71.55
2023-05-22T17:04:15.683Z,72.38
2023-05-22T17:06:43.985Z,72.83
2023-05-22T17:09:11.934Z,72.70
2023-05-22T17:11:39.869Z,71.94
2023-05-22T17:14:07.849Z,72.60
2023-05-22T17:16:35.888Z,73.20
2023-05-22T17:19:05.251Z,74.34
2023-05-22T17:21:33.449Z,73.65
2023-05-22T17:24:01.425Z,73.50
2023-05-22T17:26:29.546Z,73.61
2023-05-22T17:28:57.444Z,75.38
2023-05-22T17:31:25.697Z,74.39
2023-05-22T17:33:53.575Z,75.30
2023-05-22T17:36:22.867Z,74.78
2023-05-22T17:38:50.873Z,74.84
2023-05-22T17:41:18.835Z,75.50
2023-05-22T17:43:46.721Z,76.52
2023-05-22T17:46:14.730Z,75.99
2023-05-22T17:48:43.052Z,76.24
2023-05-22T17:51:11.106Z,76.51
2023-05-22T17:53:40.367Z,76.58
2023-05-22T17:56:08.430Z,76.52
2023-05-22T17:58:36.418Z,76.92
2023-05-22T18:01:04.349Z,77.42
2023-05-22T18:03:32.551Z,77.61
2023-05-22T18:06:00.693Z,78.23
2023-05-22T18:08:28.682Z,78.42
2023-05-22T18:10:59.027Z,79.39
2023-05-22T18:13:27.290Z,78.83
2023-05-22T18:15:55.665Z,78.82
2023-05-22T18:18:26.178Z,78.60
2023-05-22T18:20:57.060Z,78.99
2023-05-22T18:23:25.311Z,78.73
2023-05-22T18:25:53.298Z,78.27
2023-05-22T18:28:26.398Z,78.28
2023-05-22T18:30:54.539Z,78.28
2023-05-22T18:33:24.648Z,78.07
2023-05-22T18:35:52.646Z,78.18
2023-05-22T18:38:22.133Z,77.89
2023-05-22T18:40:50.724Z,78.31
2023-05-22T18:43:18.779Z,78.50
2023-05-22T18:45:47.988Z,78.92
2023-05-22T18:48:15.947Z,79.23
2023-05-22T18:50:44.228Z,79.73
2023-05-22T18:53:12.402Z,80.13
2023-05-22T18:55:40.785Z,80.42
2023-05-22T18:58:09.332Z,80.92
2023-05-22T19:00:38.998Z,81.16
2023-05-22T19:03:11.223Z,81.31
2023-05-22T19:05:39.396Z,81.55
2023-05-22T19:08:07.536Z,81.97
2023-05-22T19:10:35.462Z,82.14
2023-05-22T19:13:03.918Z,81.57
2023-05-22T19:15:34.368Z,81.85
2023-05-22T19:18:02.768Z,81.51
2023-05-22T19:20:32.143Z,81.40
2023-05-22T19:23:00.059Z,81.43
2023-05-22T19:25:30.300Z,81.21
2023-05-22T19:28:03.835Z,81.20
2023-05-22T19:30:32.067Z,81.37
2023-05-22T19:33:00.121Z,81.53
2023-05-22T19:35:28.066Z,81.51
2023-05-22T19:37:57.380Z,81.67
2023-05-22T19:40:25.448Z,81.35
2023-05-22T19:42:53.517Z,81.46
2023-05-22T19:45:21.487Z,82.41
2023-05-22T19:47:49.411Z,82.52
2023-05-22T19:50:17.435Z,83.32
2023-05-22T19:52:45.559Z,82.85
2023-05-22T19:55:14.906Z,83.40
2023-05-22T19:57:44.301Z,83.28
2023-05-22T20:00:13.322Z,83.85
2023-05-22T20:02:41.456Z,83.66
2023-05-22T20:05:12.959Z,83.90
2023-05-22T20:07:41.385Z,84.77
2023-05-22T20:10:10.759Z,84.75
2023-05-22T20:12:40.841Z,84.99
2023-05-22T20:15:10.653Z,85.55
2023-05-22T20:17:41.440Z,86.20
2023-05-22T20:20:10.359Z,86.29
2023-05-22T20:22:38.409Z,86.49
2023-05-22T20:25:08.726Z,87.28
2023-05-22T20:27:36.733Z,86.99
2023-05-22T20:30:07.776Z,87.67
2023-05-22T20:32:35.765Z,87.57
2023-05-22T20:35:04.433Z,88.33
2023-05-22T20:37:34.782Z,88.21
2023-05-22T20:40:09.397Z,88.58
2023-05-22T20:42:37.964Z,88.99
2023-05-22T20:45:15.255Z,89.34
2023-05-22T20:47:47.595Z,89.49
2023-05-22T20:50:18.911Z,89.54
2023-05-22T20:52:47.349Z,89.44
2023-05-22T20:55:15.689Z,89.56
2023-05-22T20:57:43.644Z,90.29
2023-05-22T21:00:14.698Z,90.79
2023-05-22T21:02:42.659Z,91.95
2023-05-22T21:05:11.232Z,92.28
2023-05-22T21:07:39.222Z,92.55
2023-05-22T21:10:08.344Z,93.08
2023-05-22T21:12:36.396Z,93.47
2023-05-22T21:15:04.745Z,94.07
2023-05-22T21:17:34.273Z,93.50
2023-05-22T21:20:02.270Z,93.96
2023-05-22T21:22:30.175Z,94.30
2023-05-22T21:24:58.062Z,94.24
2023-05-22T21:27:26.112Z,94.51
2023-05-22T21:29:54.078Z,95.07
2023-05-22T21:32:22.125Z,95.46
2023-05-22T21:34:51.359Z,95.92
2023-05-22T21:37:19.234Z,96.05
2023-05-22T21:39:47.229Z,95.95
2023-05-22T21:42:16.886Z,96.13
2023-05-22T21:44:44.732Z,95.82
2023-05-22T21:47:12.966Z,95.50
2023-05-22T21:49:41.305Z,94.86
2023-05-22T21:52:11.533Z,93.80
2023-05-22T21:54:40.417Z,93.45
2023-05-22T21:57:08.616Z,93.29
2023-05-22T21:59:36.782Z,93.35
2023-05-22T22:02:04.959Z,93.04
2023-05-22T22:04:33.081Z,93.21
2023-05-22T22:07:01.148Z,93.52
2023-05-22T22:09:30.623Z,93.70
2023-05-22T22:11:58.609Z,94.31
2023-05-22T22:14:26.458Z,94.78
2023-05-22T22:16:54.802Z,95.74
2023-05-22T22:19:23.568Z,95.54
2023-05-22T22:21:51.820Z,95.81
2023-05-22T22:24:19.931Z,96.47
2023-05-22T22:26:50.096Z,96.85
2023-05-22T22:29:18.170Z,97.02
2023-05-22T22:31:46.331Z,96.82
2023-05-22T22:34:14.335Z,97.65
2023-05-22T22:36:42.224Z,99.47
2023-05-22T22:39:10.222Z,100.00
2023-05-22T22:41:38.124Z,100.00
2023-05-22T22:44:07.447Z,99.30
2023-05-22T22:46:35.653Z,98.44
2023-05-22T22:49:03.637Z,98.50
2023-05-22T22:51:31.904Z,98.62
2023-05-22T22:53:59.757Z,98.02
2023-05-22T22:56:29.359Z,98.04
2023-05-22T22:58:57.586Z,98.02
2023-05-22T23:01:26.916Z,97.35
2023-05-22T23:03:54.930Z,97.58
2023-05-22T23:06:23.853Z,96.58
2023-05-22T23:08:51.817Z,94.98
2023-05-22T23:11:19.743Z,93.87
2023-05-22T23:13:47.742Z,94.00
2023-05-22T23:16:16.269Z,93.25
2023-05-22T23:18:45.803Z,92.79
2023-05-22T23:21:13.708Z,92.36
2023-05-22T23:23:41.580Z,92.22
2023-05-22T23:26:09.589Z,91.81
2023-05-22T23:28:37.522Z,92.22
2023-05-22T23:31:06.139Z,92.13
2023-05-22T23:33:34.064Z,92.88
2023-05-22T23:36:03.494Z,92.89
2023-05-22T23:38:31.409Z,92.88
2023-05-22T23:40:59.471Z,93.29
2023-05-22T23:43:27.379Z,93.03
2023-05-22T23:45:55.404Z,93.33
2023-05-22T23:48:23.262Z,93.68
2023-05-22T23:50:51.179Z,94.25
2023-05-22T23:53:20.676Z,94.65
2023-05-22T23:55:48.578Z,95.22
2023-05-22T23:58:16.883Z,95.88
